Latest Weather Observations for Oakey

IDQ60901

Issued at 2:51 am EST Sunday 20 August 2017 (issued every 10 minutes, with the page automatically refreshed every 10 minutes)

About weather observations | Map of Brisbane area stations | Latest observations for Brisbane area | Other Formats
Station Details ID: 041359 Name: OAKEY AERO Lat: -27.40 Lon: 151.74 Height: 405.69 m
Data from the previous 72 hours. | See also: Recent months at Oakey
Date/Time
EST
Temp
°C
App
Temp
°C
Dew
Point
°C
Rel
Hum
%
Delta-T
°C
Wind Press
QNH
hPa
Press
MSL
hPa
Rain since
9am
mm
Dir  Spd
km/h
Gust
km/h
Spd
kts
Gust
kts
20/02:30am 1.3 -4.3 -6.5 56 2.5 NE 15 20 8 11 1019.6 1019.5 0.0
20/02:00am 3.5 -2.4 -5.4 52 3.0 SW 17 20 9 11 1019.5 1019.4 0.0
20/01:30am 0.7 -3.3 -8.0 52 2.7 WNW 6 7 3 4 1019.9 1019.8 0.0
20/01:00am 2.8 -1.4 -7.9 45 3.5 SW 7 9 4 5 1020.1 1020.0 0.0
20/12:30am 2.7 -1.7 -5.7 54 2.9 NNE 9 11 5 6 1020.2 1020.1 0.0
20/12:00am 2.5 -1.8 -8.5 44 3.5 W 7 13 4 7 1020.2 1020.1 0.0
 
Date/Time
EST
Temp
°C
App
Temp
°C
Dew
Point
°C
Rel
Hum
%
Delta-T
°C
Wind Press
QNH
hPa
Press
MSL
hPa
Rain since
9am
mm
Dir  Spd
km/h
Gust
km/h
Spd
kts
Gust
kts
19/11:30pm 3.8 -1.6 -7.9 42 3.7 W 13 20 7 11 1020.1 1020.0 0.0
19/11:00pm 3.7 -1.3 -8.3 41 3.9 NW 11 15 6 8 1020.2 1020.1 0.0
19/10:30pm 5.1 -1.0 -7.7 39 4.1 WSW 17 20 9 11 1020.4 1020.4 0.0
19/10:00pm 4.5 -2.0 -7.9 40 3.9 WSW 19 20 10 11 1020.3 1020.2 0.0
19/09:30pm 6.4 -0.3 -7.6 36 4.6 WSW 20 24 11 13 1020.2 1020.1 0.0
19/09:00pm 7.4 0.9 -7.4 34 4.9 WSW 19 22 10 12 1020.2 1020.1 0.0
19/08:30pm 8.2 2.2 -7.1 33 5.2 SW 17 22 9 12 1020.0 1019.9 0.0
19/08:00pm 8.5 1.8 -7.6 31 5.4 WSW 20 26 11 14 1019.5 1019.4 0.0
19/07:30pm 9.7 3.1 -7.0 30 5.8 SW 20 24 11 13 1019.3 1019.2 0.0
19/07:00pm 10.2 3.6 -6.6 30 5.9 WSW 20 28 11 15 1018.8 1018.7 0.0
19/06:30pm 11.7 4.0 -6.6 27 6.6 SW 26 37 14 20 1018.7 1018.6 0.0
19/06:00pm 12.1 3.6 -6.8 26 6.8 SW 30 39 16 21 1018.2 1018.0 0.0
19/05:30pm 12.7 3.3 -6.8 25 7.1 SW 35 48 19 26 1017.5 1017.4 0.0
19/05:01pm 13.8 4.7 -6.9 23 7.6 SW 33 52 18 28 1017.1 1017.0 0.0
19/05:00pm 13.8 4.7 -6.9 23 7.6 SW 33 50 18 27 1017.1 1017.0 0.0
19/04:30pm 14.6 4.4 -6.8 22 7.9 SW 39 56 21 30 1016.7 1016.6 0.0
19/04:17pm 14.7 4.8 -7.4 21 8.1 SW 37 56 20 30 1016.7 1016.6 0.0
19/04:00pm 15.0 4.8 -6.5 22 8.1 SW 39 54 21 29 1016.6 1016.5 0.0
19/03:30pm 15.5 5.5 -5.0 24 8.0 SW 39 50 21 27 1016.5 1016.4 0.0
19/03:18pm 15.1 5.1 -5.3 24 7.9 SW 39 59 21 32 1016.4 1016.3 0.0
19/03:00pm 15.2 4.1 -5.8 23 8.0 SW 44 56 24 30 1016.4 1016.3 0.0
19/02:30pm 15.5 4.2 -5.0 24 8.0 SW 46 59 25 32 1016.5 1016.4 0.0
19/02:05pm 15.1 4.7 -5.3 24 7.9 SW 41 59 22 32 1016.6 1016.5 0.0
19/02:00pm 16.0 5.3 -4.5 24 8.1 SW 43 59 23 32 1016.8 1016.7 0.0
19/01:34pm 15.5 4.5 -5.5 23 8.1 WSW 44 63 24 34 1016.7 1016.6 0.0
19/01:30pm 15.5 3.7 -5.5 23 8.1 WSW 48 63 26 34 1016.8 1016.7 0.0
19/01:04pm 15.0 3.6 -5.4 24 7.8 SW 46 67 25 36 1016.9 1016.8 0.0
19/01:00pm 14.9 3.5 -6.0 23 7.9 SW 46 61 25 33 1017.0 1016.9 0.0
19/12:45pm 15.1 3.8 -4.8 25 7.8 SW 46 65 25 35 1017.0 1016.9 0.0
19/12:30pm 16.0 5.1 -4.5 24 8.1 SW 44 59 24 32 1017.3 1017.2 0.0
19/12:00pm 14.5 2.9 -4.2 27 7.3 WSW 48 61 26 33 1017.7 1017.6 0.0
19/11:30am 14.4 4.1 -3.9 28 7.2 SW 41 54 22 29 1018.4 1018.3 0.0
19/11:11am 14.3 3.2 -6.0 24 7.6 SW 44 63 24 34 1018.7 1018.6 0.0
19/11:00am 13.6 2.7 -6.0 25 7.3 SW 43 59 23 32 1018.8 1018.7 0.0
19/10:30am 12.8 1.9 -6.2 26 7.0 SW 43 56 23 30 1019.2 1019.1 0.0
19/10:00am 12.4 0.5 -6.5 26 6.9 SW 48 61 26 33 1019.5 1019.4 0.0
19/09:30am 12.1 1.3 -5.4 29 6.5 SW 43 56 23 30 1019.5 1019.4 0.0
19/09:00am 11.7 2.6 -4.0 33 6.0 SW 35 46 19 25 1019.7 1019.6 0.0
19/08:30am 10.3 1.3 -3.0 39 5.1 SW 35 48 19 26 1019.8 1019.7 0.0
19/08:23am 9.7 0.6 -3.2 40 4.9 SW 35 48 19 26 1019.9 1019.8 0.0
19/08:00am 8.8 2.6 -2.8 44 4.4 WSW 20 30 11 16 1019.8 1019.7 0.0
19/07:30am 6.8 1.0 -4.3 45 4.0 WSW 17 22 9 12 1019.6 1019.5 0.0
19/07:00am 3.5 -0.4 -4.4 56 2.7 WNW 7 9 4 5 1019.4 1019.3 0.0
19/06:30am 1.8 -2.6 -5.6 58 2.5 WNW 9 11 5 6 1019.2 1019.1 0.0
19/06:00am 1.8 -3.3 -5.1 60 2.4 W 13 15 7 8 1018.9 1018.8 0.0
19/05:30am 2.7 -2.8 -5.2 56 2.6 W 15 17 8 9 1018.4 1018.3 0.0
19/05:00am 2.8 -2.7 -5.3 55 2.7 W 15 15 8 8 1018.3 1018.1 0.0
19/04:30am 3.1 -2.0 -5.0 55 2.7 WSW 13 15 7 8 1018.0 1017.9 0.0
19/04:00am 3.9 -1.2 -4.8 53 3.0 W 13 15 7 8 1017.9 1017.8 0.0
19/03:30am 5.2 -0.6 -4.4 50 3.4 WSW 17 19 9 10 1017.9 1017.8 0.0
19/03:00am 6.2 0.4 -4.3 47 3.7 WSW 17 20 9 11 1017.8 1017.7 0.0
19/02:30am 6.3 0.5 -4.4 46 3.8 WSW 17 20 9 11 1017.9 1017.8 0.0
19/02:00am 7.2 0.8 -4.8 42 4.3 WSW 20 24 11 13 1018.0 1017.9 0.0
19/01:30am 7.1 0.9 -4.9 42 4.3 WSW 19 20 10 11 1018.3 1018.1 0.0
19/01:00am 8.0 1.6 -5.4 38 4.7 WSW 20 24 11 13 1018.4 1018.3 0.0
19/12:30am 8.1 1.6 -5.7 37 4.9 WSW 20 22 11 12 1018.3 1018.1 0.0
19/12:00am 8.1 1.9 -5.0 39 4.7 WSW 19 22 10 12 1018.4 1018.3 0.0
 
Date/Time
EST
Temp
°C
App
Temp
°C
Dew
Point
°C
Rel
Hum
%
Delta-T
°C
Wind Press
QNH
hPa
Press
MSL
hPa
Rain since
9am
mm
Dir  Spd
km/h
Gust
km/h
Spd
kts
Gust
kts
18/11:30pm 8.7 2.2 -5.5 36 5.1 WSW 20 24 11 13 1018.4 1018.3 0.0
18/11:00pm 7.1 1.7 -4.6 43 4.2 WSW 15 17 8 9 1018.4 1018.3 0.0
18/10:30pm 8.1 2.7 -4.7 40 4.6 WSW 15 19 8 10 1018.2 1018.0 0.0
18/10:00pm 8.2 2.4 -4.6 40 4.6 W 17 17 9 9 1018.2 1018.0 0.0
18/09:30pm 9.5 4.1 -4.8 36 5.2 WSW 15 17 8 9 1017.8 1017.7 0.0
18/09:00pm 10.9 4.8 -4.3 34 5.7 WSW 19 22 10 12 1017.8 1017.7 0.0
18/08:30pm 9.1 4.0 -5.2 36 5.2 W 13 15 7 8 1017.5 1017.4 0.0
18/08:00pm 10.5 4.7 -4.7 34 5.6 WSW 17 20 9 11 1017.3 1017.2 0.0
18/07:30pm 11.5 5.7 -5.0 31 6.2 WSW 17 19 9 10 1017.0 1016.9 0.0
18/07:00pm 13.1 6.9 -5.0 28 6.9 WSW 19 20 10 11 1016.7 1016.6 0.0
18/06:30pm 14.4 7.6 -4.8 26 7.4 W 22 24 12 13 1016.3 1016.2 0.0
18/06:00pm 17.1 8.4 -5.4 21 8.8 WSW 32 39 17 21 1015.9 1015.7 0.0
18/05:30pm 18.0 9.0 -5.9 19 9.4 WSW 33 41 18 22 1015.4 1015.3 0.0
18/05:00pm 19.3 8.4 -6.3 17 10.1 WSW 43 54 23 29 1015.2 1015.1 0.0
18/04:30pm 20.2 9.4 -5.6 17 10.4 WSW 43 56 23 30 1014.8 1014.7 0.0
18/04:00pm 21.0 10.1 -5.7 16 10.9 W 43 56 23 30 1014.5 1014.4 0.0
18/03:30pm 21.2 9.7 -6.4 15 11.1 WSW 46 59 25 32 1014.4 1014.3 0.0
18/03:09pm 21.2 9.7 -6.4 15 11.1 WSW 46 65 25 35 1014.3 1014.2 0.0
18/03:00pm 21.2 9.5 -4.8 17 10.8 W 48 65 26 35 1014.4 1014.3 0.0
18/02:49pm 22.0 12.1 -4.1 17 11.1 WSW 39 57 21 31 1014.4 1014.3 0.0
18/02:30pm 21.7 10.0 -5.2 16 11.1 W 48 61 26 33 1014.5 1014.4 0.0
18/02:00pm 22.0 11.2 -3.4 18 10.9 WSW 44 63 24 34 1014.6 1014.5 0.0
18/01:46pm 21.6 10.7 -4.5 17 10.9 W 44 63 24 34 1014.7 1014.6 0.0
18/01:30pm 21.7 10.2 -2.9 19 10.6 WSW 48 61 26 33 1014.8 1014.7 0.0
18/01:00pm 21.2 10.8 -2.0 21 10.2 WSW 43 54 23 29 1015.0 1014.9 0.0
18/12:30pm 21.2 10.5 -4.0 18 10.6 WSW 43 56 23 30 1015.4 1015.3 0.0
18/12:00pm 20.4 9.9 -2.6 21 9.9 WSW 43 57 23 31 1016.1 1015.9 0.0
18/11:30am 20.4 10.4 -2.0 22 9.8 WSW 41 54 22 29 1016.5 1016.4 0.0
18/11:00am 20.1 9.7 -1.7 23 9.5 WSW 43 54 23 29 1017.0 1016.9 0.0
18/10:30am 18.9 8.4 -2.7 23 9.1 WSW 43 57 23 31 1017.4 1017.3 0.0
18/10:00am 18.8 9.1 -2.2 24 9.0 SW 39 48 21 26 1017.6 1017.5 0.0
18/09:30am 17.8 9.2 -2.5 25 8.5 SW 33 50 18 27 1017.7 1017.6 0.0
18/09:00am 15.4 7.7 -6.8 21 8.3 WSW 26 33 14 18 1017.8 1017.7 0.0
18/08:30am 13.9 6.7 -5.3 26 7.3 WSW 24 30 13 16 1017.9 1017.8 0.0
18/08:00am 12.7 7.6 -2.0 36 5.9 W 15 19 8 10 1017.4 1017.3 0.0
18/07:30am 8.5 6.2 0.5 57 3.3 WNW 2 6 1 3 1017.1 1017.0 0.0
18/07:00am 5.4 2.5 1.3 75 1.7 N 6 7 3 4 1016.7 1016.6 0.0
18/06:30am 3.1 -0.3 -0.7 76 1.4 N 7 9 4 5 1016.5 1016.4 0.0
18/06:00am 3.5 0.4 -0.1 77 1.4 NE 6 7 3 4 1016.3 1016.2 0.0
18/05:30am 3.0 0.9 -0.5 78 1.3 CALM 0 0 0 0 1015.9 1015.7 0.0
18/05:00am 3.7 1.6 -0.9 72 1.7 CALM 0 0 0 0 1015.7 1015.5 0.0
18/04:30am 3.9 1.5 -0.3 74 1.6 SE 2 7 1 4 1015.4 1015.3 0.0
18/04:00am 4.3 2.2 -0.7 70 1.9 CALM 0 0 0 0 1015.1 1015.0 0.0
18/03:30am 5.3 3.3 -0.1 68 2.1 CALM 0 0 0 0 1014.9 1014.8 0.0
18/03:00am 5.7 3.6 -0.8 63 2.5 CALM 0 0 0 0 1015.0 1014.9 0.0
18/02:30am 6.6 4.6 0.1 63 2.6 CALM 0 0 0 0 1014.8 1014.7 0.0
18/02:00am 9.3 7.6 1.7 59 3.2 CALM 0 0 0 0 1015.0 1014.9 0.0
18/01:30am 10.4 6.8 0.4 50 4.2 W 9 9 5 5 1015.0 1014.9 0.0
18/01:00am 11.4 7.9 1.1 49 4.4 WNW 9 11 5 6 1015.1 1015.0 0.0
18/12:30am 10.6 6.3 1.2 52 4.0 WNW 13 15 7 8 1015.2 1015.1 0.0
18/12:00am 10.9 6.2 1.2 51 4.1 WNW 15 15 8 8 1015.1 1015.0 0.0
 
Date/Time
EST
Temp
°C
App
Temp
°C
Dew
Point
°C
Rel
Hum
%
Delta-T
°C
Wind Press
QNH
hPa
Press
MSL
hPa
Rain since
9am
mm
Dir  Spd
km/h
Gust
km/h
Spd
kts
Gust
kts
17/11:30pm 11.4 6.8 1.6 51 4.2 WNW 15 17 8 9 1015.1 1015.0 0.0
17/11:00pm 12.1 7.6 2.0 50 4.4 WNW 15 17 8 9 1015.2 1015.1 0.0
17/10:30pm 12.3 7.9 2.7 52 4.3 WNW 15 17 8 9 1015.0 1014.9 0.0
17/10:00pm 12.6 8.6 3.0 52 4.3 WNW 13 15 7 8 1014.9 1014.8 0.0
17/09:30pm 13.1 9.2 3.2 51 4.5 WNW 13 13 7 7 1014.7 1014.6 0.0
17/09:00pm 15.2 11.4 3.7 46 5.4 WSW 13 15 7 8 1014.6 1014.5 0.0
17/08:30pm 17.7 12.7 3.6 39 6.7 WSW 19 24 10 13 1014.4 1014.3 0.0
17/08:00pm 15.9 13.0 4.9 48 5.3 W 9 13 5 7 1014.0 1013.8 0.0
17/07:30pm 16.9 13.3 5.2 46 5.7 WSW 13 17 7 9 1013.6 1013.4 0.0
17/07:00pm 18.1 14.1 5.0 42 6.4 WSW 15 17 8 9 1013.3 1013.1 0.0
17/06:30pm 20.5 16.3 5.7 38 7.5 W 17 20 9 11 1012.7 1012.6 0.0
17/06:00pm 22.5 17.8 5.9 34 8.6 W 20 24 11 13 1012.2 1012.1 0.0
17/05:30pm 24.3 18.0 5.6 30 9.7 W 28 33 15 18 1011.9 1011.7 0.0
17/05:00pm 25.8 17.5 5.9 28 10.5 W 39 46 21 25 1011.6 1011.4 0.0
17/04:30pm 26.8 19.7 5.7 26 11.1 W 32 41 17 22 1011.2 1011.0 0.0
17/04:00pm 27.5 19.5 5.7 25 11.5 W 37 48 20 26 1010.9 1010.7 0.0
17/03:30pm 27.9 19.6 6.1 25 11.6 W 39 54 21 29 1010.7 1010.5 0.0
17/03:19pm 28.3 19.9 5.8 24 12.0 W 39 59 21 32 1010.7 1010.5 0.0
17/03:00pm 28.1 19.7 5.6 24 11.9 W 39 52 21 28 1010.7 1010.5 0.0
17/02:30pm 28.7 19.5 5.5 23 12.3 W 43 54 23 29 1010.8 1010.6 0.0
17/02:13pm 28.7 20.5 4.9 22 12.5 W 37 56 20 30 1010.8 1010.6 0.0
17/02:00pm 28.9 20.6 6.3 24 12.2 W 39 48 21 26 1010.8 1010.6 0.0
17/01:30pm 28.9 21.2 6.9 25 12.0 W 37 52 20 28 1011.1 1010.9 0.0
17/01:12pm 28.9 21.8 6.3 24 12.2 W 33 61 18 33 1011.2 1011.0 0.0
17/01:00pm 28.3 21.0 7.0 26 11.6 W 35 50 19 27 1011.5 1011.3 0.0
17/12:30pm 27.7 20.5 7.5 28 11.0 W 35 44 19 24 1011.9 1011.7 0.0
17/12:00pm 27.2 21.3 7.6 29 10.7 WNW 28 43 15 23 1012.2 1012.1 0.0
17/11:30am 26.4 21.6 8.8 33 9.8 NW 24 32 13 17 1012.7 1012.6 0.0
17/11:00am 24.7 20.2 8.6 36 8.8 WNW 22 33 12 18 1013.5 1013.3 0.0
17/10:30am 24.9 20.3 9.6 38 8.5 WNW 24 30 13 16 1014.0 1013.8 0.0
17/10:00am 23.7 19.3 10.4 43 7.5 WNW 24 30 13 16 1014.3 1014.2 0.0
17/09:30am 22.8 19.2 11.8 50 6.3 WNW 22 28 12 15 1014.5 1014.4 0.0
17/09:00am 21.2 17.9 11.5 54 5.5 NW 20 28 11 15 1014.6 1014.5 0.0
17/08:30am 20.2 16.8 12.4 61 4.5 NW 22 30 12 16 1014.7 1014.6 0.0
17/08:00am 17.6 16.2 10.9 65 3.7 N 9 13 5 7 1014.6 1014.5 0.0
17/07:30am 14.9 13.4 9.3 69 2.9 NE 7 7 4 4 1014.4 1014.3 0.0
17/07:00am 10.1 8.0 6.8 80 1.6 E 7 9 4 5 1014.2 1014.1 0.0
17/06:30am 9.7 6.6 7.3 85 1.2 NE 13 15 7 8 1014.0 1013.8 0.0
17/06:00am 8.8 6.5 5.9 82 1.4 NE 7 9 4 5 1013.7 1013.5 0.0
17/05:30am 9.9 8.6 5.9 76 1.9 SSW 2 7 1 4 1013.3 1013.1 0.0
17/05:00am 10.5 8.3 6.3 75 2.0 SSE 7 9 4 5 1013.2 1013.0 0.0
17/04:30am 11.5 10.8 6.8 73 2.3 CALM 0 0 0 0 1012.6 1012.5 0.0
17/04:00am 11.3 10.1 6.4 72 2.4 SE 2 7 1 4 1012.3 1012.2 0.0
17/03:30am 13.5 12.9 7.5 67 3.0 CALM 0 0 0 0 1012.2 1012.1 0.0
17/03:00am 14.1 11.5 6.2 59 3.9 SW 9 11 5 6 1012.2 1012.1 0.0

Latest Capital City Observations: Canberra | Sydney | Melbourne | Brisbane | Adelaide | Perth | Hobart | Darwin

Other Formats:

Comma delimited format used in spreadsheet applications
http://www.bom.gov.au/fwo/IDQ60901/IDQ60901.94552.axf

JavaScript Object Notation format (JSON) in row-major order
http://www.bom.gov.au/fwo/IDQ60901/IDQ60901.94552.json